Terminal Aerodrome Forecast
Issued by NWS

Home | Current Version | Previous Version | Text Only | Print | Product List | Glossary On
Versions: 1 2 3 4 5 6 7 8 9 10 11 12 13
000
FTUS45 KGGW 230521
TAFGDV
TAF
KGDV 230521Z 2306/2406 VRB03KT P6SM BKN017
     FM230900 06007KT 6SM BR BKN010
     FM232000 02006KT P6SM BKN020=

USA.gov is the U.S. government's official web portal to all federal, state and local government web resources and services.